Patterson Springs, North Carolina
Current Conditions -  °F | °C
As of 2:15 PM on Saturday 25 Oct 2014 (Local Time) from KEHO Reporting Station
Clear Clear  
Wind Chill: 70°   Ceiling: Unl
Heat Index: 70°   Visibility: 10mi
Dew Point: 32°   Wind: 0mph
Humidity: 25%   Direction: NA
Pressure: 29.99"   Gusts: NA
Location:  35.3693°N, 81.5992°W
Report Text: KEHO 251815Z AUTO 00000KT 10SM CLR 21/00 A2999 RMK AO2 T02100000
Loading
Personal Weather Stations






























Interactive Weather Map
Tropical Storm Tracking
New forecast layout! Learn more

10-Day Weather Forecast

Advertisements
Track Severe Weather on mobile